createdAt,value
2023-05-05T00:00:51.826Z,10.48
2023-05-05T00:03:21.249Z,10.48
2023-05-05T00:05:50.088Z,10.44
2023-05-05T00:08:17.965Z,10.43
2023-05-05T00:10:45.953Z,10.40
2023-05-05T00:13:14.277Z,10.34
2023-05-05T00:15:44.014Z,10.35
2023-05-05T00:18:12.463Z,10.33
2023-05-05T00:20:40.050Z,10.26
2023-05-05T00:23:07.615Z,10.23
2023-05-05T00:25:35.289Z,10.22
2023-05-05T00:28:02.800Z,10.14
2023-05-05T00:30:30.627Z,10.14
2023-05-05T00:32:58.752Z,10.11
2023-05-05T00:35:27.064Z,10.06
2023-05-05T00:37:55.525Z,10.01
2023-05-05T00:40:23.667Z,9.95
2023-05-05T00:42:51.439Z,9.98
2023-05-05T00:45:20.310Z,9.95
2023-05-05T00:47:53.676Z,9.94
2023-05-05T00:50:26.903Z,9.85
2023-05-05T00:52:57.688Z,9.79
2023-05-05T00:55:26.185Z,9.77
2023-05-05T00:57:54.084Z,9.72
2023-05-05T01:00:22.098Z,9.64
2023-05-05T01:02:49.708Z,9.63
2023-05-05T01:05:18.306Z,9.58
2023-05-05T01:08:07.271Z,9.62
2023-05-05T01:10:52.855Z,9.55
2023-05-05T01:13:48.503Z,9.55
2023-05-05T01:16:23.055Z,9.40
2023-05-05T01:18:56.542Z,9.40
2023-05-05T01:21:43.306Z,9.40
2023-05-05T01:24:48.117Z,9.40
2023-05-05T01:27:34.403Z,9.32
2023-05-05T01:30:38.240Z,9.34
2023-05-05T01:33:09.934Z,9.23
2023-05-05T01:35:45.041Z,9.16
2023-05-05T01:38:19.381Z,9.16
2023-05-05T01:40:52.390Z,9.11
2023-05-05T01:43:23.539Z,9.11
2023-05-05T01:45:52.930Z,9.06
2023-05-05T01:48:24.638Z,9.05
2023-05-05T01:50:54.196Z,9.01
2023-05-05T01:53:25.850Z,9.03
2023-05-05T01:55:55.802Z,9.03
2023-05-05T01:58:25.361Z,9.03
2023-05-05T02:00:56.736Z,9.02
2023-05-05T02:03:25.896Z,9.01
2023-05-05T02:05:54.893Z,9.00
2023-05-05T02:08:24.980Z,8.96
2023-05-05T02:10:53.942Z,8.93
2023-05-05T02:13:23.528Z,8.99
2023-05-05T02:15:52.312Z,8.99
2023-05-05T02:18:21.024Z,9.01
2023-05-05T02:20:49.006Z,8.99
2023-05-05T02:23:16.874Z,9.00
2023-05-05T02:25:49.323Z,9.06
2023-05-05T02:28:35.573Z,9.07
2023-05-05T02:31:07.351Z,9.03
2023-05-05T02:33:38.037Z,9.09
2023-05-05T02:36:17.991Z,9.12
2023-05-05T02:38:58.197Z,9.13
2023-05-05T02:41:29.700Z,9.17
2023-05-05T02:44:03.077Z,9.18
2023-05-05T02:46:32.886Z,9.21
2023-05-05T02:49:00.476Z,9.30
2023-05-05T02:51:28.176Z,9.35
2023-05-05T02:53:58.766Z,9.41
2023-05-05T02:56:42.970Z,9.49
2023-05-05T02:59:40.572Z,9.52
2023-05-05T03:02:27.842Z,9.46
2023-05-05T03:05:04.503Z,9.38
2023-05-05T03:07:39.361Z,9.36
2023-05-05T03:10:14.116Z,9.35
2023-05-05T03:12:56.811Z,9.39
2023-05-05T03:15:46.301Z,9.38
2023-05-05T03:18:16.459Z,9.60
2023-05-05T03:20:48.839Z,9.42
2023-05-05T03:23:21.030Z,9.39
2023-05-05T03:25:52.047Z,9.35
2023-05-05T03:28:42.249Z,9.31
2023-05-05T03:31:21.474Z,9.34
2023-05-05T03:33:54.086Z,9.36
2023-05-05T03:36:27.186Z,9.44
2023-05-05T03:38:56.424Z,9.58
2023-05-05T03:41:25.997Z,9.70
2023-05-05T03:43:54.221Z,9.79
2023-05-05T03:46:22.060Z,9.87
2023-05-05T03:48:49.629Z,10.02
2023-05-05T03:51:17.570Z,10.03
2023-05-05T03:53:45.628Z,10.17
2023-05-05T03:56:13.241Z,10.23
2023-05-05T03:58:40.741Z,10.26
2023-05-05T04:01:08.459Z,10.26
2023-05-05T04:03:36.192Z,10.22
2023-05-05T04:06:03.961Z,10.17
2023-05-05T04:08:33.136Z,10.06
2023-05-05T04:11:02.631Z,9.81
2023-05-05T04:13:31.698Z,9.68
2023-05-05T04:15:59.997Z,9.62
2023-05-05T04:18:27.662Z,9.63
2023-05-05T04:20:55.590Z,9.69
2023-05-05T04:23:23.740Z,9.71
2023-05-05T04:25:51.645Z,9.67
2023-05-05T04:28:21.799Z,9.72
2023-05-05T04:30:50.094Z,9.75
2023-05-05T04:33:17.937Z,9.79
2023-05-05T04:35:47.641Z,9.85
2023-05-05T04:38:15.828Z,9.91
2023-05-05T04:40:44.034Z,9.96
2023-05-05T04:43:12.287Z,10.02
2023-05-05T04:45:40.306Z,10.00
2023-05-05T04:48:07.915Z,9.95
2023-05-05T04:50:35.507Z,9.88
2023-05-05T04:53:03.080Z,9.88
2023-05-05T04:55:30.710Z,9.99
2023-05-05T04:57:58.368Z,10.18
2023-05-05T05:00:25.876Z,10.42
2023-05-05T05:02:53.956Z,10.60
2023-05-05T05:05:21.714Z,10.77
2023-05-05T05:07:49.244Z,10.96
2023-05-05T05:10:17.440Z,11.16
2023-05-05T05:12:47.397Z,11.30
2023-05-05T05:15:15.054Z,11.64
2023-05-05T05:17:42.748Z,11.93
2023-05-05T05:20:10.858Z,12.20
2023-05-05T05:22:39.178Z,12.40
2023-05-05T05:25:11.082Z,12.25
2023-05-05T05:27:39.399Z,12.00
2023-05-05T05:30:08.829Z,12.01
2023-05-05T05:32:36.609Z,12.19
2023-05-05T05:35:05.458Z,12.43
2023-05-05T05:37:34.604Z,12.78
2023-05-05T05:40:05.109Z,13.34
2023-05-05T05:42:37.389Z,13.62
2023-05-05T05:45:07.225Z,13.67
2023-05-05T05:47:35.001Z,13.40
2023-05-05T05:50:04.827Z,13.18
2023-05-05T05:52:33.279Z,12.90
2023-05-05T05:55:00.815Z,12.67
2023-05-05T05:57:28.378Z,12.37
2023-05-05T05:59:56.025Z,12.15
2023-05-05T06:02:24.505Z,11.82
2023-05-05T06:04:52.446Z,11.67
2023-05-05T06:07:20.192Z,11.60
2023-05-05T06:09:48.062Z,11.54
2023-05-05T06:12:16.105Z,11.51
2023-05-05T06:14:43.886Z,11.43
2023-05-05T06:17:11.352Z,11.35
2023-05-05T06:19:40.981Z,11.26
2023-05-05T06:22:09.519Z,11.15
2023-05-05T06:24:37.356Z,11.05
2023-05-05T06:27:05.665Z,10.93
2023-05-05T06:29:33.213Z,10.90
2023-05-05T06:32:01.505Z,10.99
2023-05-05T06:34:29.076Z,11.13
2023-05-05T06:36:56.508Z,11.26
2023-05-05T06:39:24.086Z,11.41
2023-05-05T06:41:52.021Z,11.55
2023-05-05T06:44:19.569Z,11.72
2023-05-05T06:46:47.382Z,11.85
2023-05-05T06:49:14.898Z,11.99
2023-05-05T06:51:42.915Z,12.21
2023-05-05T06:54:10.542Z,12.39
2023-05-05T06:56:37.968Z,12.60
2023-05-05T06:59:05.470Z,12.69
2023-05-05T07:01:32.903Z,12.68
2023-05-05T07:04:00.784Z,12.63
2023-05-05T07:06:28.598Z,12.49
2023-05-05T07:08:56.472Z,12.53
2023-05-05T07:11:24.141Z,12.77
2023-05-05T07:13:51.892Z,13.60
2023-05-05T07:16:19.360Z,14.32
2023-05-05T07:18:46.990Z,14.66
2023-05-05T07:21:16.969Z,14.68
2023-05-05T07:23:46.376Z,14.48
2023-05-05T07:26:15.330Z,14.38
2023-05-05T07:28:44.054Z,14.21
2023-05-05T07:31:11.688Z,14.10
2023-05-05T07:33:39.293Z,14.02
2023-05-05T07:36:07.047Z,14.07
2023-05-05T07:38:34.613Z,14.18
2023-05-05T07:41:03.143Z,14.39
2023-05-05T07:43:31.147Z,14.32
2023-05-05T07:45:59.603Z,14.05
2023-05-05T07:48:28.733Z,13.63
2023-05-05T07:50:56.332Z,13.25
2023-05-05T07:53:23.800Z,12.96
2023-05-05T07:55:52.679Z,12.52
2023-05-05T07:58:23.184Z,12.12
2023-05-05T08:00:51.372Z,11.73
2023-05-05T08:03:21.702Z,11.46
2023-05-05T08:05:51.608Z,11.25
2023-05-05T08:08:19.534Z,11.24
2023-05-05T08:10:47.119Z,11.25
2023-05-05T08:13:14.732Z,11.19
2023-05-05T08:15:42.453Z,11.15
2023-05-05T08:18:09.983Z,11.17
2023-05-05T08:20:38.132Z,11.19
2023-05-05T08:23:05.655Z,11.20
2023-05-05T08:25:33.253Z,11.25
2023-05-05T08:28:00.760Z,11.23
2023-05-05T08:30:29.062Z,11.18
2023-05-05T08:32:57.797Z,11.20
2023-05-05T08:35:25.444Z,11.30
2023-05-05T08:37:53.275Z,11.34
2023-05-05T08:40:25.140Z,11.30
2023-05-05T08:42:53.509Z,11.30
2023-05-05T08:45:21.368Z,11.30
2023-05-05T08:47:49.058Z,11.35
2023-05-05T08:50:18.255Z,11.39
2023-05-05T08:52:53.848Z,11.43
2023-05-05T08:55:26.684Z,11.11
2023-05-05T08:58:01.253Z,10.86
2023-05-05T09:00:29.216Z,10.71
2023-05-05T09:02:58.933Z,10.61
2023-05-05T09:05:27.302Z,10.53
2023-05-05T09:07:55.100Z,10.45
2023-05-05T09:10:25.921Z,10.36
2023-05-05T09:12:53.752Z,10.33
2023-05-05T09:15:21.325Z,10.28
2023-05-05T09:17:48.985Z,10.17
2023-05-05T09:20:16.635Z,10.12
2023-05-05T09:22:46.924Z,10.07
2023-05-05T09:25:16.808Z,10.12
2023-05-05T09:27:49.043Z,10.27
2023-05-05T09:30:23.371Z,10.41
2023-05-05T09:32:53.326Z,10.57
2023-05-05T09:35:22.354Z,10.66
2023-05-05T09:37:50.259Z,10.70
2023-05-05T09:40:19.537Z,11.09
2023-05-05T09:42:47.909Z,12.47
2023-05-05T09:45:18.235Z,14.04
2023-05-05T09:47:49.511Z,14.93
2023-05-05T09:50:21.046Z,15.63
2023-05-05T09:52:59.733Z,16.39
2023-05-05T09:55:27.573Z,17.71
2023-05-05T09:57:55.346Z,18.60
2023-05-05T10:00:36.560Z,19.13
2023-05-05T10:03:04.946Z,19.85
2023-05-05T10:05:32.630Z,20.54
2023-05-05T10:08:13.612Z,20.13
2023-05-05T10:10:54.547Z,18.91
2023-05-05T10:13:24.206Z,17.33
2023-05-05T10:15:56.694Z,16.05
2023-05-05T10:18:28.899Z,14.99
2023-05-05T10:20:58.616Z,14.03
2023-05-05T10:23:36.167Z,13.41
2023-05-05T10:26:07.076Z,12.76
2023-05-05T10:28:49.826Z,12.39
2023-05-05T10:31:29.071Z,11.94
2023-05-05T10:34:06.087Z,11.85
2023-05-05T10:36:34.323Z,11.81
2023-05-05T10:39:03.338Z,12.09
2023-05-05T10:41:33.216Z,12.27
2023-05-05T10:44:04.290Z,12.36
2023-05-05T10:46:32.682Z,12.37
2023-05-05T10:49:12.494Z,12.41
2023-05-05T10:51:57.034Z,12.39
2023-05-05T10:54:50.662Z,12.20
2023-05-05T10:57:24.062Z,11.89
2023-05-05T10:59:52.013Z,11.75
2023-05-05T11:02:29.883Z,11.78
2023-05-05T11:05:03.836Z,11.57
2023-05-05T11:07:33.890Z,11.36
2023-05-05T11:10:06.569Z,11.19
2023-05-05T11:13:03.045Z,11.24
2023-05-05T11:15:30.672Z,10.97
2023-05-05T11:17:59.983Z,10.86
2023-05-05T11:20:43.709Z,10.86
2023-05-05T11:23:11.374Z,10.64
2023-05-05T11:25:42.209Z,10.70
2023-05-05T11:28:14.814Z,11.20
2023-05-05T11:30:58.852Z,11.45
2023-05-05T11:33:37.871Z,11.44
2023-05-05T11:36:13.798Z,11.34
2023-05-05T11:39:12.008Z,11.20
2023-05-05T11:42:19.007Z,10.96
2023-05-05T11:45:33.137Z,10.93
2023-05-05T11:48:47.220Z,11.41
2023-05-05T11:52:07.414Z,11.72
2023-05-05T11:55:09.270Z,12.03
2023-05-05T11:58:07.168Z,12.40
2023-05-05T12:01:33.003Z,12.78
2023-05-05T12:04:03.606Z,12.98
2023-05-05T12:06:34.529Z,13.87
2023-05-05T12:09:02.769Z,14.82
2023-05-05T12:11:30.425Z,15.46
2023-05-05T12:14:11.158Z,18.02
2023-05-05T12:16:39.346Z,18.86
2023-05-05T12:19:08.616Z,19.55
2023-05-05T12:21:36.349Z,20.60
2023-05-05T12:24:04.420Z,20.81
2023-05-05T12:26:33.011Z,21.25
2023-05-05T12:29:01.880Z,22.26
2023-05-05T12:31:41.605Z,23.62
2023-05-05T12:34:11.254Z,22.63
2023-05-05T12:36:39.886Z,21.38
2023-05-05T12:39:07.652Z,21.27
2023-05-05T12:41:36.027Z,20.89
2023-05-05T12:44:04.446Z,19.84
2023-05-05T12:46:45.511Z,18.92
2023-05-05T12:49:13.354Z,18.26
2023-05-05T12:51:54.341Z,18.31
2023-05-05T12:54:25.327Z,17.04
2023-05-05T12:56:53.184Z,15.89
2023-05-05T12:59:24.212Z,15.05
2023-05-05T13:01:54.145Z,14.35
2023-05-05T13:04:24.398Z,13.79
2023-05-05T13:07:12.373Z,13.43
2023-05-05T13:09:40.930Z,12.84
2023-05-05T13:12:12.324Z,12.69
2023-05-05T13:14:41.136Z,12.69
2023-05-05T13:17:09.360Z,12.66
2023-05-05T13:19:42.155Z,12.52
2023-05-05T13:22:10.939Z,12.40
2023-05-05T13:24:50.719Z,12.18
2023-05-05T13:27:20.984Z,11.93
2023-05-05T13:29:48.833Z,11.76
2023-05-05T13:32:16.333Z,11.66
2023-05-05T13:34:44.398Z,11.59
2023-05-05T13:37:12.191Z,11.56
2023-05-05T13:39:39.971Z,11.43
2023-05-05T13:42:07.475Z,11.30
2023-05-05T13:44:35.724Z,11.18
2023-05-05T13:47:04.503Z,11.20
2023-05-05T13:49:32.099Z,11.27
2023-05-05T13:51:59.691Z,11.16
2023-05-05T13:54:27.207Z,10.98
2023-05-05T13:56:54.844Z,10.98
2023-05-05T13:59:22.451Z,11.01
2023-05-05T14:01:50.215Z,11.02
2023-05-05T14:04:17.753Z,10.89
2023-05-05T14:06:45.266Z,10.75
2023-05-05T14:09:13.264Z,10.72
2023-05-05T14:11:41.229Z,10.70
2023-05-05T14:14:08.818Z,10.78
2023-05-05T14:16:36.486Z,10.96
2023-05-05T14:19:04.324Z,11.08
2023-05-05T14:21:32.962Z,11.01
2023-05-05T14:24:00.735Z,10.89
2023-05-05T14:26:28.538Z,10.81
2023-05-05T14:28:56.214Z,10.68
2023-05-05T14:31:23.733Z,10.58
2023-05-05T14:33:51.421Z,10.49
2023-05-05T14:36:19.261Z,10.35
2023-05-05T14:38:47.021Z,10.21
2023-05-05T14:41:14.630Z,10.13
2023-05-05T14:43:42.125Z,10.03
2023-05-05T14:46:09.901Z,9.93
2023-05-05T14:48:37.773Z,9.85
2023-05-05T14:51:05.457Z,9.81
2023-05-05T14:53:34.993Z,9.80
2023-05-05T14:56:02.697Z,9.82
2023-05-05T14:58:31.182Z,9.80
2023-05-05T15:01:00.559Z,9.69
2023-05-05T15:03:28.716Z,9.64
2023-05-05T15:05:56.653Z,9.52
2023-05-05T15:08:24.706Z,9.42
2023-05-05T15:10:52.403Z,9.36
2023-05-05T15:13:20.423Z,9.25
2023-05-05T15:15:49.098Z,9.16
2023-05-05T15:18:17.404Z,9.07
2023-05-05T15:20:45.011Z,8.99
2023-05-05T15:23:12.547Z,8.89
2023-05-05T15:25:40.142Z,8.78
2023-05-05T15:28:07.794Z,8.70
2023-05-05T15:30:35.480Z,8.70
2023-05-05T15:33:03.110Z,8.60
2023-05-05T15:35:30.894Z,8.55
2023-05-05T15:37:58.564Z,8.55
2023-05-05T15:40:26.194Z,8.50
2023-05-05T15:43:12.196Z,8.46
2023-05-05T15:45:41.570Z,8.38
2023-05-05T15:48:09.193Z,8.29
2023-05-05T15:50:36.953Z,8.24
2023-05-05T15:53:04.418Z,8.20
2023-05-05T15:55:32.179Z,8.19
2023-05-05T15:57:59.655Z,8.18
2023-05-05T16:00:28.199Z,8.22
2023-05-05T16:02:56.310Z,8.31
2023-05-05T16:05:23.912Z,8.30
2023-05-05T16:07:52.618Z,8.31
2023-05-05T16:10:20.689Z,8.26
2023-05-05T16:12:48.566Z,8.21
2023-05-05T16:15:16.225Z,8.17
2023-05-05T16:17:43.895Z,8.11
2023-05-05T16:20:11.816Z,8.00
2023-05-05T16:22:39.431Z,8.04
2023-05-05T16:25:07.854Z,8.02
2023-05-05T16:27:35.628Z,7.99
2023-05-05T16:30:03.500Z,7.86
2023-05-05T16:32:31.585Z,7.83
2023-05-05T16:35:00.652Z,7.81
2023-05-05T16:37:28.821Z,7.78
2023-05-05T16:39:56.436Z,7.72
2023-05-05T16:42:24.298Z,7.69
2023-05-05T16:44:51.852Z,7.65
2023-05-05T16:47:19.347Z,7.62
2023-05-05T16:49:47.274Z,7.60
2023-05-05T16:52:14.877Z,7.57
2023-05-05T16:54:43.642Z,7.46
2023-05-05T16:57:11.129Z,7.46
2023-05-05T16:59:38.689Z,7.47
2023-05-05T17:02:06.409Z,7.42
2023-05-05T17:04:34.051Z,7.38
2023-05-05T17:07:02.020Z,7.31
2023-05-05T17:09:29.614Z,7.25
2023-05-05T17:11:57.881Z,7.24
2023-05-05T17:14:27.397Z,7.20
2023-05-05T17:16:55.382Z,7.15
2023-05-05T17:19:23.326Z,7.13
2023-05-05T17:21:51.001Z,7.08
2023-05-05T17:24:18.781Z,7.06
2023-05-05T17:26:46.934Z,6.99
2023-05-05T17:29:19.740Z,6.95
2023-05-05T17:31:47.724Z,6.96
2023-05-05T17:34:15.340Z,6.88
2023-05-05T17:36:42.965Z,6.86
2023-05-05T17:39:11.563Z,6.86
2023-05-05T17:41:39.398Z,6.87
2023-05-05T17:44:07.434Z,6.86
2023-05-05T17:46:36.373Z,6.84
2023-05-05T17:49:04.313Z,6.85
2023-05-05T17:51:32.462Z,6.83
2023-05-05T17:54:00.281Z,6.79
2023-05-05T17:56:27.793Z,6.79
2023-05-05T17:58:55.361Z,6.74
2023-05-05T18:01:24.136Z,6.75
2023-05-05T18:03:51.881Z,6.72
2023-05-05T18:06:19.468Z,6.64
2023-05-05T18:09:05.743Z,6.63
2023-05-05T18:11:34.109Z,6.59
2023-05-05T18:14:01.666Z,6.51
2023-05-05T18:16:29.339Z,6.51
2023-05-05T18:18:56.879Z,6.50
2023-05-05T18:21:24.618Z,6.44
2023-05-05T18:23:57.289Z,6.41
2023-05-05T18:26:29.463Z,6.60
2023-05-05T18:28:58.064Z,6.41
2023-05-05T18:31:26.744Z,6.39
2023-05-05T18:33:54.500Z,6.37
2023-05-05T18:36:23.017Z,6.34
2023-05-05T18:38:51.218Z,6.30
2023-05-05T18:41:18.734Z,6.33
2023-05-05T18:43:46.423Z,6.32
2023-05-05T18:46:14.418Z,6.31
2023-05-05T18:48:42.183Z,6.28
2023-05-05T18:51:09.781Z,6.26
2023-05-05T18:54:06.750Z,6.30
2023-05-05T18:57:32.680Z,6.23
2023-05-05T19:04:59.628Z,6.34
2023-05-05T19:08:14.244Z,6.23
2023-05-05T19:15:39.928Z,6.28
2023-05-05T19:23:41.230Z,6.29
2023-05-05T19:27:23.216Z,6.28
2023-05-05T19:30:12.762Z,6.20
2023-05-05T19:32:40.374Z,6.16
2023-05-05T19:35:10.484Z,6.14
2023-05-05T19:37:38.603Z,6.11
2023-05-05T19:40:06.764Z,6.08
2023-05-05T19:42:34.814Z,6.02
2023-05-05T19:45:02.689Z,6.01
2023-05-05T19:47:33.634Z,6.02
2023-05-05T19:50:01.290Z,5.96
2023-05-05T19:52:29.643Z,5.98
2023-05-05T19:54:57.590Z,5.99
2023-05-05T19:57:25.181Z,5.96
2023-05-05T19:59:52.736Z,5.95
2023-05-05T20:02:22.168Z,5.94
2023-05-05T20:04:49.850Z,5.94
2023-05-05T20:07:18.018Z,5.94
2023-05-05T20:09:46.486Z,5.92
2023-05-05T20:12:14.155Z,5.86
2023-05-05T20:14:42.052Z,5.82
2023-05-05T20:17:09.727Z,5.84
2023-05-05T20:19:37.171Z,5.77
2023-05-05T20:22:05.055Z,5.71
2023-05-05T20:24:33.973Z,5.73
2023-05-05T20:27:02.105Z,5.71
2023-05-05T20:29:29.616Z,5.68
2023-05-05T20:31:57.821Z,5.64
2023-05-05T20:34:27.261Z,5.64
2023-05-05T20:36:54.917Z,5.55
2023-05-05T20:39:22.461Z,5.56
2023-05-05T20:41:49.960Z,5.48
2023-05-05T20:44:17.486Z,5.48
2023-05-05T20:46:45.134Z,5.51
2023-05-05T20:49:12.712Z,5.48
2023-05-05T20:51:40.226Z,5.52
2023-05-05T20:54:08.025Z,5.53
2023-05-05T20:56:35.580Z,5.52
2023-05-05T20:59:04.363Z,5.42
2023-05-05T21:01:32.187Z,5.47
2023-05-05T21:04:00.464Z,5.47
2023-05-05T21:06:28.114Z,5.43
2023-05-05T21:08:56.160Z,5.42
2023-05-05T21:11:23.867Z,5.39
2023-05-05T21:13:51.500Z,5.35
2023-05-05T21:16:19.010Z,5.30
2023-05-05T21:18:47.428Z,5.30
2023-05-05T21:21:15.265Z,5.28
2023-05-05T21:23:43.012Z,5.24
2023-05-05T21:26:10.598Z,5.25
2023-05-05T21:28:38.103Z,5.21
2023-05-05T21:31:21.128Z,5.19
2023-05-05T21:33:49.820Z,5.13
2023-05-05T21:36:19.164Z,5.14
2023-05-05T21:38:47.186Z,5.06
2023-05-05T21:41:14.813Z,5.08
2023-05-05T21:43:42.487Z,5.06
2023-05-05T21:46:10.003Z,5.06
2023-05-05T21:51:23.850Z,4.97
2023-05-05T21:53:51.422Z,4.93
2023-05-05T21:56:19.092Z,4.96
2023-05-05T21:59:24.026Z,4.95
2023-05-05T22:01:51.756Z,4.90
2023-05-05T22:04:19.426Z,4.86
2023-05-05T22:06:47.072Z,4.85
2023-05-05T22:09:14.616Z,4.81
2023-05-05T22:14:27.281Z,4.77
2023-05-05T22:16:54.811Z,4.71
2023-05-05T22:19:22.333Z,4.69
2023-05-05T22:21:49.959Z,4.67
2023-05-05T22:24:17.640Z,4.69
2023-05-05T22:26:45.123Z,4.65
2023-05-05T22:29:12.683Z,4.62
2023-05-05T22:31:40.506Z,4.58
2023-05-05T22:34:08.431Z,4.56
2023-05-05T22:36:36.052Z,4.57
2023-05-05T22:39:03.687Z,4.54
2023-05-05T22:41:31.334Z,4.49
2023-05-05T22:43:58.826Z,4.47
2023-05-05T22:46:26.381Z,4.44
2023-05-05T22:48:54.327Z,4.41
2023-05-05T22:51:22.390Z,4.34
2023-05-05T22:53:50.014Z,4.34
2023-05-05T22:56:17.599Z,4.28
2023-05-05T22:58:46.667Z,4.28
2023-05-05T23:01:14.431Z,4.25
2023-05-05T23:03:42.114Z,4.21
2023-05-05T23:06:09.996Z,4.15
2023-05-05T23:08:37.491Z,4.15
2023-05-05T23:11:05.211Z,4.09
2023-05-05T23:13:32.853Z,4.10
2023-05-05T23:16:00.595Z,4.08
2023-05-05T23:18:28.105Z,4.03
2023-05-05T23:20:55.906Z,4.02
2023-05-05T23:23:23.423Z,3.94
2023-05-05T23:25:51.522Z,3.94
2023-05-05T23:28:20.309Z,3.84
2023-05-05T23:30:48.181Z,3.79
2023-05-05T23:33:15.730Z,3.85
2023-05-05T23:35:45.601Z,3.83
2023-05-05T23:38:13.233Z,3.79
2023-05-05T23:40:40.763Z,3.77
2023-05-05T23:43:08.554Z,3.73
2023-05-05T23:45:36.032Z,3.72
2023-05-05T23:48:04.016Z,3.69
2023-05-05T23:50:31.554Z,3.62
2023-05-05T23:52:59.044Z,3.62
2023-05-05T23:55:26.633Z,3.58
2023-05-05T23:57:54.198Z,3.53
